Time;durP1;ratioP1;P1;durP2;ratioP2;P2;SDS_P1;SDS_P2;PMS_P1;PMS_P2;Temp;Humidity;BMP_temperature;BMP_pressure;BME280_temperature;BME280_humidity;BME280_pressure;Samples;Min_cycle;Max_cycle;Signal;HPM_P1;HPM_P2
2023/06/03 00:00:34;;;;;;;;;11.00;10.00;;;;;19.69;32.98;101230.56;4963647;28;45297;-60
2023/06/03 00:02:59;;;;;;;;;11.00;10.50;;;;;19.62;32.95;101228.16;4968907;28;45390;-59
2023/06/03 00:05:25;;;;;;;;;13.50;13.50;;;;;19.63;33.01;101234.34;4980342;28;45305;-59
2023/06/03 00:07:50;;;;;;;;;17.00;12.50;;;;;19.60;33.05;101232.69;4981816;28;46491;-59
2023/06/03 00:10:16;;;;;;;;;10.75;7.75;;;;;19.57;33.06;101216.84;4982973;28;45757;-59
2023/06/03 00:12:43;;;;;;;;;15.00;13.50;;;;;19.53;33.09;101225.03;4982964;28;45350;-59
2023/06/03 00:15:09;;;;;;;;;16.75;13.50;;;;;19.48;32.94;101217.22;4984358;28;45310;-59
2023/06/03 00:17:34;;;;;;;;;14.75;11.00;;;;;19.47;33.47;101231.50;4984805;28;46005;-59
2023/06/03 00:20:06;;;;;;;;;13.75;13.50;;;;;19.44;33.29;101224.50;4961761;28;45454;-59
2023/06/03 00:22:38;;;;;;;;;14.00;14.00;;;;;19.42;32.98;101238.81;4963605;28;45340;-59
2023/06/03 00:25:07;;;;;;;;;14.25;13.50;;;;;19.38;33.44;101224.75;4962931;28;45378;-59
2023/06/03 00:27:32;;;;;;;;;17.00;15.75;;;;;19.36;33.19;101234.63;4961533;28;45413;-59
2023/06/03 00:29:57;;;;;;;;;13.25;12.00;;;;;19.35;33.29;101232.91;4963055;28;45327;-59
2023/06/03 00:32:23;;;;;;;;;14.00;13.00;;;;;19.32;33.36;101217.91;4963271;28;45322;-59
2023/06/03 00:34:48;;;;;;;;;14.75;13.25;;;;;19.29;33.53;101227.84;4962968;28;45271;-59
2023/06/03 00:37:14;;;;;;;;;13.25;10.25;;;;;19.26;33.85;101223.50;4963192;28;46391;-59
2023/06/03 00:39:39;;;;;;;;;14.00;12.00;;;;;19.25;33.92;101221.78;4961685;28;45328;-59
2023/06/03 00:42:04;;;;;;;;;13.25;11.00;;;;;19.19;33.82;101216.69;4963199;28;45316;-59
2023/06/03 00:44:30;;;;;;;;;14.25;13.00;;;;;19.16;33.90;101216.84;4962811;28;45517;-59
2023/06/03 00:46:55;;;;;;;;;14.50;13.00;;;;;19.14;33.87;101218.69;4962865;28;45321;-59
2023/06/03 00:49:21;;;;;;;;;18.25;15.75;;;;;19.09;33.61;101213.56;4961656;28;45359;-59
2023/06/03 00:51:47;;;;;;;;;16.75;14.75;;;;;19.07;33.96;101215.44;4963129;28;45236;-59
2023/06/03 00:54:14;;;;;;;;;16.00;13.75;;;;;19.05;33.99;101219.94;4962843;28;45244;-59
2023/06/03 00:56:44;;;;;;;;;20.00;16.00;;;;;19.02;33.86;101209.44;4962557;28;45248;-59
2023/06/03 00:59:15;;;;;;;;;20.75;16.50;;;;;19.00;33.91;101208.63;4961195;28;45363;-59
2023/06/03 01:01:42;;;;;;;;;14.00;12.25;;;;;18.97;34.55;101201.63;4963164;28;45305;-58
2023/06/03 01:04:11;;;;;;;;;16.25;15.00;;;;;18.95;34.30;101202.63;4976698;28;45443;-58
2023/06/03 01:06:45;;;;;;;;;16.50;15.00;;;;;18.92;34.14;101203.63;4970219;28;46117;-58
2023/06/03 01:09:23;;;;;;;;;18.25;14.25;;;;;18.90;34.27;101193.94;4962515;28;45348;-59
2023/06/03 01:12:19;;;;;;;;;15.75;14.25;;;;;18.87;34.28;101200.25;4962432;28;45485;-59
2023/06/03 01:14:59;;;;;;;;;13.50;11.75;;;;;18.83;34.24;101196.84;4961108;28;45221;-59
2023/06/03 01:17:28;;;;;;;;;13.50;12.50;;;;;18.80;34.57;101201.44;4962514;28;47245;-59
2023/06/03 01:19:56;;;;;;;;;17.00;16.00;;;;;18.78;34.40;101203.28;4962486;28;45696;-59
2023/06/03 01:22:26;;;;;;;;;15.75;13.50;;;;;18.75;34.48;101201.63;4962709;28;45408;-59
2023/06/03 01:25:11;;;;;;;;;15.50;12.00;;;;;18.73;34.64;101203.50;4977101;28;46054;-59
2023/06/03 01:27:39;;;;;;;;;12.25;12.25;;;;;18.70;34.23;101192.09;4962206;28;45515;-59
2023/06/03 01:30:07;;;;;;;;;16.00;14.25;;;;;18.66;34.25;101194.03;4961092;28;45320;-59
2023/06/03 01:32:34;;;;;;;;;16.50;16.00;;;;;18.62;34.70;101189.75;4962458;28;45338;-59
2023/06/03 01:35:00;;;;;;;;;15.00;14.00;;;;;18.62;34.66;101184.44;4962093;28;45344;-59
2023/06/03 01:37:27;;;;;;;;;15.50;13.50;;;;;18.59;35.05;101187.22;4962242;28;45437;-59
2023/06/03 01:39:54;;;;;;;;;20.50;17.25;;;;;18.56;34.74;101185.53;4960695;28;45345;-59
2023/06/03 01:42:19;;;;;;;;;14.75;12.75;;;;;18.54;34.61;101186.53;4962326;28;45284;-59
2023/06/03 01:44:45;;;;;;;;;13.75;12.25;;;;;18.50;35.01;101185.78;4976733;28;45412;-59
2023/06/03 01:47:11;;;;;;;;;14.50;12.75;;;;;18.47;35.03;101185.94;4962100;28;45167;-59
2023/06/03 01:49:36;;;;;;;;;14.50;13.25;;;;;18.43;35.00;101189.66;4962061;28;45387;-59
2023/06/03 01:52:02;;;;;;;;;15.50;14.50;;;;;18.39;35.12;101185.34;4962066;28;45403;-59
2023/06/03 01:54:29;;;;;;;;;13.50;12.00;;;;;18.38;35.31;101187.16;4960690;28;45460;-59
2023/06/03 01:56:56;;;;;;;;;16.25;14.00;;;;;18.36;35.44;101189.00;4960429;28;47289;-58
2023/06/03 01:59:24;;;;;;;;;14.00;13.00;;;;;18.33;35.21;101197.97;4960888;28;45267;-59
2023/06/03 02:01:55;;;;;;;;;12.50;11.50;;;;;18.30;35.42;101194.56;4961931;28;45244;-59
2023/06/03 02:04:21;;;;;;;;;22.50;15.00;;;;;18.29;35.45;101198.19;4976966;28;45522;-58
2023/06/03 02:06:53;;;;;;;;;14.50;13.50;;;;;18.27;35.44;101189.38;4967894;28;46307;-58
2023/06/03 02:09:27;;;;;;;;;17.50;17.00;;;;;18.23;35.40;101188.63;4960703;28;45331;-58
2023/06/03 02:11:53;;;;;;;;;17.25;15.50;;;;;18.19;35.35;101181.72;4961576;28;45349;-58
2023/06/03 02:14:19;;;;;;;;;18.25;17.25;;;;;18.11;35.70;101174.03;4961728;28;45341;-58
2023/06/03 02:16:45;;;;;;;;;12.75;12.25;;;;;18.14;35.59;101192.50;4986434;28;45429;-58
2023/06/03 02:19:12;;;;;;;;;17.50;16.00;;;;;18.12;35.87;101190.84;4960304;28;45303;-58
2023/06/03 02:21:39;;;;;;;;;19.00;16.50;;;;;18.09;35.73;101186.50;4961675;28;45236;-58
2023/06/03 02:24:05;;;;;;;;;14.75;14.75;;;;;18.08;35.81;101192.75;4961630;28;45172;-59
2023/06/03 02:26:31;;;;;;;;;16.50;14.50;;;;;18.05;35.76;101187.56;4961213;28;46547;-58
2023/06/03 02:28:56;;;;;;;;;16.75;16.00;;;;;18.03;35.87;101190.25;4961404;28;45368;-59
2023/06/03 02:31:22;;;;;;;;;16.00;14.50;;;;;18.02;35.90;101185.00;4961508;28;45335;-59
2023/06/03 02:33:48;;;;;;;;;16.25;14.00;;;;;18.00;36.08;101181.56;4961645;28;45477;-59
2023/06/03 02:36:14;;;;;;;;;14.25;14.25;;;;;17.96;35.93;101180.81;4961289;28;45347;-59
2023/06/03 02:38:43;;;;;;;;;16.25;15.25;;;;;17.97;35.86;101181.66;4961591;28;45397;-59
2023/06/03 02:41:08;;;;;;;;;13.25;12.25;;;;;17.95;36.27;101183.50;4961179;28;45304;-59
2023/06/03 02:43:33;;;;;;;;;14.00;12.25;;;;;17.94;36.27;101187.09;4961225;28;45280;-59
2023/06/03 02:45:59;;;;;;;;;17.25;15.50;;;;;17.91;36.09;101180.09;4961174;28;46188;-59
2023/06/03 02:48:24;;;;;;;;;16.50;15.50;;;;;17.90;36.07;101175.69;4961360;28;45291;-59
2023/06/03 02:50:50;;;;;;;;;20.75;17.00;;;;;17.86;36.10;101180.25;4961254;28;45223;-59
2023/06/03 02:53:17;;;;;;;;;17.00;14.50;;;;;17.85;36.26;101177.66;4961099;28;45457;-59
2023/06/03 02:55:42;;;;;;;;;17.50;15.75;;;;;17.81;36.51;101174.25;4960815;28;45473;-59
2023/06/03 02:58:08;;;;;;;;;14.25;12.50;;;;;17.80;36.44;101183.13;4961063;28;45335;-58
2023/06/03 03:00:34;;;;;;;;;18.00;17.25;;;;;17.77;36.52;101177.91;4961038;28;46266;-58
2023/06/03 03:03:01;;;;;;;;;15.75;13.25;;;;;17.76;36.56;101183.28;4966165;28;45287;-59
2023/06/03 03:05:26;;;;;;;;;13.25;12.25;;;;;17.73;36.66;101181.63;4977678;28;46325;-59
2023/06/03 03:07:51;;;;;;;;;16.75;16.25;;;;;17.71;36.72;101183.50;4960953;28;45199;-59
2023/06/03 03:10:17;;;;;;;;;19.25;16.50;;;;;17.69;36.69;101183.53;4961024;28;46028;-58
2023/06/03 03:12:42;;;;;;;;;16.25;14.25;;;;;17.67;36.58;101188.03;4959458;28;45481;-59
2023/06/03 03:15:08;;;;;;;;;17.25;17.00;;;;;17.64;36.72;101190.81;4963706;28;56671;-59
2023/06/03 03:17:33;;;;;;;;;17.25;16.25;;;;;17.61;36.81;101180.31;4982012;28;45257;-59
2023/06/03 03:19:59;;;;;;;;;19.75;16.50;;;;;17.60;36.82;101183.03;4961096;28;45284;-59
2023/06/03 03:22:25;;;;;;;;;16.00;15.75;;;;;17.55;36.69;101181.38;4975881;28;45620;-59
2023/06/03 03:24:51;;;;;;;;;17.75;14.50;;;;;17.57;36.85;101188.44;4975403;28;46921;-59
2023/06/03 03:27:16;;;;;;;;;17.75;13.75;;;;;17.54;37.09;101184.09;4975957;28;45235;-59
2023/06/03 03:29:45;;;;;;;;;13.50;13.00;;;;;17.52;36.94;101185.94;4960666;28;45378;-59
2023/06/03 03:32:11;;;;;;;;;22.00;20.25;;;;;17.50;37.19;101183.34;4960722;28;45330;-59
2023/06/03 03:34:38;;;;;;;;;20.25;17.25;;;;;17.48;37.19;101179.88;4960265;28;46097;-59
2023/06/03 03:37:04;;;;;;;;;18.75;15.00;;;;;17.47;37.00;101188.78;4960035;28;45255;-59
2023/06/03 03:39:30;;;;;;;;;21.75;15.25;;;;;17.40;37.31;101181.94;4960641;28;45269;-59
2023/06/03 03:41:55;;;;;;;;;21.50;16.00;;;;;17.43;37.21;101183.63;4960386;28;45617;-59
2023/06/03 03:44:22;;;;;;;;;15.50;15.50;;;;;17.41;37.40;101185.44;4960233;28;45247;-59
2023/06/03 03:47:00;;;;;;;;;18.00;16.00;;;;;17.39;37.21;101182.84;4960611;28;45313;-59
2023/06/03 03:49:28;;;;;;;;;22.25;18.75;;;;;17.36;37.61;101186.50;4960516;28;45357;-59
2023/06/03 03:51:55;;;;;;;;;19.75;18.25;;;;;17.35;37.43;101186.53;4960417;28;45332;-58
2023/06/03 03:54:23;;;;;;;;;19.00;16.75;;;;;17.33;37.67;101185.72;4975073;28;47030;-58
2023/06/03 03:56:56;;;;;;;;;23.50;19.50;;;;;17.31;37.61;101192.91;4960301;28;45343;-59
2023/06/03 03:59:21;;;;;;;;;24.50;21.75;;;;;17.29;37.42;101200.91;4959706;28;45353;-59
2023/06/03 04:01:47;;;;;;;;;21.50;16.50;;;;;17.25;37.66;101199.28;4960225;28;45489;-59
2023/06/03 04:04:25;;;;;;;;;24.00;20.50;;;;;17.23;37.90;101198.44;4974846;28;45242;-59
2023/06/03 04:06:53;;;;;;;;;20.75;17.00;;;;;17.22;37.69;101197.59;4964753;28;46002;-59
2023/06/03 04:09:19;;;;;;;;;23.25;21.75;;;;;17.22;37.95;101202.06;4960399;28;45259;-59
2023/06/03 04:11:44;;;;;;;;;18.00;17.00;;;;;17.19;37.70;101200.38;4959775;28;45326;-59
2023/06/03 04:14:15;;;;;;;;;19.25;15.75;;;;;17.16;38.00;101196.94;4959945;28;45494;-59
2023/06/03 04:16:45;;;;;;;;;20.50;19.25;;;;;17.14;37.47;101196.97;5001290;28;45391;-59
2023/06/03 04:19:32;;;;;;;;;21.50;17.75;;;;;17.12;37.82;101195.31;4960382;28;45286;-59
2023/06/03 04:21:59;;;;;;;;;17.00;17.00;;;;;17.10;38.05;101194.50;4959912;28;45404;-58
2023/06/03 04:24:25;;;;;;;;;20.75;19.75;;;;;17.08;37.93;101199.00;4962838;28;45390;-58
2023/06/03 04:26:51;;;;;;;;;18.50;15.00;;;;;17.06;37.80;101199.91;4962659;28;45317;-59
2023/06/03 04:29:17;;;;;;;;;20.75;16.25;;;;;17.03;38.10;101202.69;4963167;28;45174;-58
2023/06/03 04:31:42;;;;;;;;;20.00;16.50;;;;;17.03;38.42;101199.13;4961995;28;45267;-58
2023/06/03 04:34:07;;;;;;;;;18.75;16.75;;;;;17.02;38.14;101205.41;4963293;28;45215;-58
2023/06/03 04:36:32;;;;;;;;;23.00;22.00;;;;;16.97;38.38;101204.69;4961846;28;45269;-58
2023/06/03 04:38:58;;;;;;;;;21.75;21.00;;;;;16.98;38.41;101206.41;4963580;28;45200;-59
2023/06/03 04:41:27;;;;;;;;;21.00;19.50;;;;;16.95;38.50;101202.06;4962961;28;45339;-58
2023/06/03 04:43:55;;;;;;;;;18.25;17.50;;;;;16.95;38.25;101211.81;4961719;28;46512;-58
2023/06/03 04:46:21;;;;;;;;;15.75;15.75;;;;;16.95;38.32;101222.44;4962863;28;45278;-58
2023/06/03 04:48:48;;;;;;;;;22.00;18.50;;;;;16.90;38.69;101226.09;4963222;28;45313;-58
2023/06/03 04:51:13;;;;;;;;;21.00;20.00;;;;;16.86;38.31;101221.78;4962956;28;45486;-58
2023/06/03 04:53:40;;;;;;;;;28.25;23.00;;;;;16.89;38.64;101231.41;4962785;28;45344;-58
2023/06/03 04:56:08;;;;;;;;;21.75;18.75;;;;;16.81;38.70;101215.75;4962752;28;45315;-58
2023/06/03 04:58:35;;;;;;;;;19.00;18.00;;;;;16.86;38.57;101224.44;4962817;28;45417;-58
2023/06/03 05:01:03;;;;;;;;;16.25;15.75;;;;;16.87;38.47;101227.97;4962687;28;45259;-58
2023/06/03 05:03:28;;;;;;;;;21.75;15.25;;;;;16.84;38.79;101231.59;4986009;28;47942;-59
2023/06/03 05:05:54;;;;;;;;;23.00;23.00;;;;;16.82;38.75;101228.13;4975457;28;48732;-59
2023/06/03 05:08:19;;;;;;;;;18.00;16.75;;;;;16.82;39.25;101236.06;4962991;28;45228;-59
2023/06/03 05:10:45;;;;;;;;;22.75;22.00;;;;;16.83;38.47;101236.94;4961252;28;45494;-59
2023/06/03 05:13:10;;;;;;;;;19.00;16.75;;;;;16.81;39.24;101229.03;4962198;28;52187;-59
2023/06/03 05:15:35;;;;;;;;;20.00;17.25;;;;;16.81;38.75;101229.03;4973614;28;45198;-59
2023/06/03 05:18:02;;;;;;;;;18.25;18.00;;;;;16.81;39.01;101231.69;4977417;28;45152;-59
2023/06/03 05:20:28;;;;;;;;;21.00;18.75;;;;;16.80;38.98;101232.59;4977518;28;45576;-59
2023/06/03 05:22:54;;;;;;;;;20.25;17.25;;;;;16.79;38.82;101228.22;4961021;28;46631;-60
2023/06/03 05:25:19;;;;;;;;;25.25;23.25;;;;;16.79;39.20;101237.94;4962045;28;45306;-59
2023/06/03 05:27:45;;;;;;;;;18.75;17.25;;;;;16.74;39.21;101225.72;4961051;28;45373;-60
2023/06/03 05:30:11;;;;;;;;;20.00;18.00;;;;;16.80;39.14;101240.56;4962249;28;45269;-62
2023/06/03 05:32:36;;;;;;;;;18.00;17.75;;;;;16.80;39.25;101240.56;4962184;28;47020;-60
2023/06/03 05:35:01;;;;;;;;;23.25;18.50;;;;;16.80;39.16;101234.38;4959926;28;45301;-59
2023/06/03 05:37:26;;;;;;;;;15.25;15.00;;;;;16.82;39.25;101229.91;4961114;28;45301;-61
2023/06/03 05:39:52;;;;;;;;;18.25;15.00;;;;;16.83;38.88;101226.31;4960767;28;45585;-60
2023/06/03 05:42:17;;;;;;;;;17.00;15.25;;;;;16.81;39.04;101221.06;4961709;28;54193;-60
2023/06/03 05:44:42;;;;;;;;;18.00;16.75;;;;;16.84;39.35;101231.59;4977008;28;45312;-59
2023/06/03 05:47:08;;;;;;;;;16.00;15.00;;;;;16.81;39.56;101223.72;4962336;28;45481;-60
2023/06/03 05:49:33;;;;;;;;;22.00;18.75;;;;;16.83;39.33;101226.31;4962048;28;45460;-60
2023/06/03 05:51:58;;;;;;;;;17.50;17.00;;;;;16.86;39.13;101228.88;4961851;28;46266;-61
2023/06/03 05:54:28;;;;;;;;;16.00;14.75;;;;;16.85;39.46;101228.00;4961995;28;45254;-60
2023/06/03 05:56:54;;;;;;;;;20.50;19.50;;;;;16.87;39.66;101242.09;4961990;28;45282;-60
2023/06/03 05:59:20;;;;;;;;;19.25;17.25;;;;;16.87;39.45;101238.59;4961613;28;45515;-60
2023/06/03 06:01:45;;;;;;;;;17.00;15.00;;;;;16.87;39.63;101239.44;4961460;28;50875;-60
2023/06/03 06:04:10;;;;;;;;;19.75;16.25;;;;;16.93;39.62;101245.50;4976202;28;45330;-59
2023/06/03 06:06:36;;;;;;;;;24.00;17.75;;;;;16.92;39.38;101243.75;4969392;28;46492;-60
2023/06/03 06:09:02;;;;;;;;;18.75;17.25;;;;;16.93;39.67;101240.19;4960546;28;45464;-60
2023/06/03 06:11:27;;;;;;;;;21.50;19.75;;;;;16.95;39.50;101249.84;4961404;28;45355;-60
2023/06/03 06:13:53;;;;;;;;;17.00;13.75;;;;;16.96;39.50;101248.06;4961530;28;45229;-59
2023/06/03 06:16:18;;;;;;;;;14.00;14.00;;;;;16.95;39.67;101252.50;4984358;28;45361;-60
2023/06/03 06:18:43;;;;;;;;;18.25;15.75;;;;;17.00;39.58;101244.38;4964167;28;45538;-60
2023/06/03 06:21:09;;;;;;;;;22.75;20.25;;;;;16.99;39.89;101248.84;4976707;28;46048;-60
2023/06/03 06:23:35;;;;;;;;;23.00;19.25;;;;;17.03;39.34;101246.94;4961386;28;45232;-60
2023/06/03 06:26:00;;;;;;;;;20.50;18.75;;;;;17.04;39.53;101238.94;4961682;28;45295;-60
2023/06/03 06:28:27;;;;;;;;;16.50;16.50;;;;;17.03;39.44;101237.19;4961051;28;45224;-60
2023/06/03 06:31:00;;;;;;;;;18.00;17.00;;;;;17.06;39.73;101246.84;4976283;28;47693;-60
2023/06/03 06:33:27;;;;;;;;;21.00;19.75;;;;;17.10;39.89;101239.66;4961254;28;45243;-60
2023/06/03 06:35:52;;;;;;;;;18.75;17.50;;;;;17.12;40.05;101248.41;4961615;28;45345;-60
2023/06/03 06:38:18;;;;;;;;;16.25;13.75;;;;;17.14;39.66;101249.22;4960138;28;45339;-60
2023/06/03 06:40:45;;;;;;;;;17.50;16.50;;;;;17.17;39.90;101249.16;4961239;28;46138;-60
2023/06/03 06:43:16;;;;;;;;;22.00;16.25;;;;;17.18;39.85;101253.50;4961092;28;45556;-60
2023/06/03 06:45:41;;;;;;;;;18.50;16.75;;;;;17.21;39.83;101251.63;4959754;28;45531;-60
2023/06/03 06:48:09;;;;;;;;;16.75;14.25;;;;;17.23;40.01;101248.91;4961246;28;45393;-60
2023/06/03 06:50:54;;;;;;;;;19.75;15.00;;;;;17.27;39.58;101244.38;4961163;28;46309;-60
2023/06/03 06:53:22;;;;;;;;;19.00;16.25;;;;;17.28;39.91;101246.09;4961148;28;45488;-60
2023/06/03 06:55:53;;;;;;;;;15.25;15.25;;;;;17.34;40.12;101261.84;4960961;28;45242;-60
2023/06/03 06:58:19;;;;;;;;;19.75;17.25;;;;;17.36;40.12;101252.03;4960881;28;45514;-60
2023/06/03 07:00:46;;;;;;;;;15.25;14.50;;;;;17.40;39.74;101260.78;4960768;28;46991;-60
2023/06/03 07:03:14;;;;;;;;;12.50;12.00;;;;;17.44;40.05;101257.09;4967765;28;46250;-60
2023/06/03 07:05:39;;;;;;;;;17.00;16.25;;;;;17.47;39.79;101256.97;4975857;28;45366;-59
2023/06/03 07:08:05;;;;;;;;;17.50;16.50;;;;;17.50;40.09;101260.38;4960962;28;45195;-60
2023/06/03 07:10:31;;;;;;;;;12.75;12.75;;;;;17.53;39.82;101262.94;4975685;28;47004;-60
2023/06/03 07:12:56;;;;;;;;;21.75;19.25;;;;;17.58;40.20;101261.91;4960647;28;45300;-60
2023/06/03 07:15:23;;;;;;;;;13.50;13.25;;;;;17.59;39.86;101253.03;4961128;28;45279;-60
2023/06/03 07:17:52;;;;;;;;;18.50;17.00;;;;;17.63;40.11;101258.16;4960969;28;45361;-60
2023/06/03 07:20:20;;;;;;;;;17.75;13.25;;;;;17.69;40.06;101257.09;4960572;28;45735;-60
2023/06/03 07:22:46;;;;;;;;;18.25;14.75;;;;;17.74;39.93;101262.25;4960740;28;45288;-59
2023/06/03 07:25:35;;;;;;;;;12.00;11.00;;;;;17.78;39.98;101261.19;4960632;28;45453;-59
2023/06/03 07:28:10;;;;;;;;;12.75;11.50;;;;;17.82;39.85;101257.50;4960384;28;45556;-59
2023/06/03 07:30:36;;;;;;;;;13.25;10.00;;;;;17.85;40.15;101255.59;4975551;28;46326;-60
2023/06/03 07:33:04;;;;;;;;;13.25;13.25;;;;;17.89;39.84;101250.19;4960387;28;45761;-60
2023/06/03 07:35:30;;;;;;;;;13.00;12.00;;;;;17.93;39.84;101257.13;4960634;28;45268;-60
2023/06/03 07:37:56;;;;;;;;;22.25;17.00;;;;;17.99;39.82;101262.25;4959280;28;45361;-59
2023/06/03 07:40:42;;;;;;;;;14.00;12.75;;;;;18.02;39.86;101249.72;4960584;28;45280;-59
2023/06/03 07:43:11;;;;;;;;;17.25;16.50;;;;;18.09;39.84;101257.47;4959174;28;45367;-59
2023/06/03 07:45:37;;;;;;;;;15.00;14.25;;;;;18.13;39.94;101254.59;4960599;28;45417;-59
2023/06/03 07:48:04;;;;;;;;;15.75;14.50;;;;;18.17;40.05;101248.22;4960352;28;45251;-59
2023/06/03 07:50:30;;;;;;;;;15.00;14.75;;;;;18.22;39.86;101258.72;4960480;28;45244;-59
2023/06/03 07:53:03;;;;;;;;;15.75;13.75;;;;;18.28;40.10;101261.13;4960501;28;45200;-59
2023/06/03 07:55:41;;;;;;;;;16.50;15.75;;;;;18.31;40.01;101254.84;4960123;28;45307;-59
2023/06/03 07:58:09;;;;;;;;;15.25;14.75;;;;;18.35;39.67;101252.00;4961456;28;45396;-59
2023/06/03 08:00:36;;;;;;;;;12.00;12.00;;;;;18.39;40.13;101247.44;4963376;28;45327;-59
2023/06/03 08:03:01;;;;;;;;;17.00;15.00;;;;;18.47;39.91;101255.97;4969034;28;45302;-59
2023/06/03 08:05:50;;;;;;;;;10.25;10.25;;;;;18.54;40.09;101250.41;4980553;28;45464;-59
2023/06/03 08:08:18;;;;;;;;;15.00;13.50;;;;;18.59;40.18;101254.63;4957823;28;45226;-59
2023/06/03 08:10:48;;;;;;;;;13.00;11.25;;;;;18.63;39.86;101248.25;4977740;28;46516;-59
2023/06/03 08:13:16;;;;;;;;;16.25;13.00;;;;;18.69;39.85;101257.78;4963273;28;45231;-59
2023/06/03 08:15:41;;;;;;;;;14.75;11.50;;;;;18.74;39.94;101258.47;4975893;28;45240;-59
2023/06/03 08:18:08;;;;;;;;;15.50;14.75;;;;;18.79;40.08;101253.84;4975971;28;45467;-59
2023/06/03 08:20:35;;;;;;;;;17.75;15.00;;;;;18.84;40.07;101251.84;4962301;28;46153;-59
2023/06/03 08:23:02;;;;;;;;;13.50;11.50;;;;;18.91;39.96;101248.97;4962321;28;45331;-60
2023/06/03 08:25:27;;;;;;;;;16.50;14.25;;;;;18.95;39.82;101242.56;4960995;28;45192;-59
2023/06/03 08:27:53;;;;;;;;;16.00;14.75;;;;;18.97;39.78;101236.25;4962123;28;45200;-59
2023/06/03 08:30:22;;;;;;;;;15.50;14.00;;;;;19.06;39.86;101245.66;4962409;28;45222;-59
2023/06/03 08:32:50;;;;;;;;;16.25;13.25;;;;;19.11;39.92;101238.34;4960869;28;45358;-59
2023/06/03 08:35:18;;;;;;;;;18.25;14.00;;;;;19.20;39.59;101238.91;4960996;28;45287;-60
2023/06/03 08:37:44;;;;;;;;;18.25;15.25;;;;;19.23;39.70;101233.41;4962019;28;45235;-59
2023/06/03 08:40:11;;;;;;;;;12.50;12.00;;;;;19.31;40.02;101239.31;4961903;28;45244;-59
2023/06/03 08:42:47;;;;;;;;;14.75;14.00;;;;;19.39;40.04;101238.97;4962156;28;45389;-59
2023/06/03 08:45:16;;;;;;;;;13.50;11.00;;;;;19.42;39.74;101229.03;4962140;28;45293;-58
2023/06/03 08:48:00;;;;;;;;;15.50;14.50;;;;;19.51;39.88;101227.78;4961957;28;45254;-58
2023/06/03 08:50:27;;;;;;;;;15.00;13.25;;;;;19.58;39.76;101231.88;4961816;28;46203;-58
2023/06/03 08:52:53;;;;;;;;;17.00;13.50;;;;;19.64;40.28;101234.28;4961325;28;45216;-59
2023/06/03 08:55:20;;;;;;;;;14.75;13.75;;;;;19.72;39.93;101233.06;4961830;28;45264;-58
2023/06/03 08:57:59;;;;;;;;;16.50;15.00;;;;;19.78;40.02;101231.00;4961662;28;45163;-58
2023/06/03 09:00:26;;;;;;;;;12.25;11.00;;;;;19.84;40.14;101219.22;4961606;28;46848;-59
2023/06/03 09:02:52;;;;;;;;;15.25;12.00;;;;;19.89;39.96;101230.53;4965488;28;45352;-58
2023/06/03 09:05:19;;;;;;;;;13.00;11.50;;;;;19.98;39.51;101231.94;4979429;28;45412;-58
2023/06/03 09:07:47;;;;;;;;;15.50;12.00;;;;;20.04;39.97;101236.97;4961729;28;45405;-58
2023/06/03 09:10:22;;;;;;;;;14.00;11.75;;;;;20.12;39.67;101231.28;4961088;28;47349;-58
2023/06/03 09:12:48;;;;;;;;;17.00;15.25;;;;;20.18;40.02;101231.00;4961264;28;45471;-58
2023/06/03 09:15:14;;;;;;;;;18.75;15.00;;;;;20.25;39.45;101228.91;4925791;28;1183192;-59
2023/06/03 09:17:41;;;;;;;;;13.25;12.00;;;;;20.26;40.06;101215.50;4982534;28;45465;-59
2023/06/03 09:20:08;;;;;;;;;18.00;16.50;;;;;20.38;39.55;101232.72;4962323;28;47262;-59
2023/06/03 09:22:35;;;;;;;;;16.25;14.00;;;;;20.46;39.91;101232.34;4962732;28;45319;-59
2023/06/03 09:25:00;;;;;;;;;14.75;14.00;;;;;20.52;39.85;101226.72;4962295;28;45240;-59
2023/06/03 09:27:25;;;;;;;;;13.25;12.75;;;;;20.61;39.84;101236.09;4962258;28;45232;-59
2023/06/03 09:29:53;;;;;;;;;11.75;11.75;;;;;20.68;39.46;101232.19;4962151;28;50642;-58
2023/06/03 09:32:20;;;;;;;;;10.25;9.25;;;;;20.77;39.41;101238.91;4962622;28;45398;-58
2023/06/03 09:34:45;;;;;;;;;15.25;13.75;;;;;20.85;39.83;101243.88;4962234;28;45374;-58
2023/06/03 09:37:10;;;;;;;;;9.00;6.50;;;;;20.92;39.23;101246.16;4962221;28;45295;-58
2023/06/03 09:39:36;;;;;;;;;12.00;11.25;;;;;21.01;39.26;101244.84;4962123;28;46045;-58
2023/06/03 09:42:03;;;;;;;;;19.50;13.75;;;;;21.08;39.21;101240.03;4962076;28;45489;-58
2023/06/03 09:44:46;;;;;;;;;12.00;11.00;;;;;21.18;39.03;101244.00;4962207;28;45241;-58
2023/06/03 09:47:12;;;;;;;;;13.50;11.50;;;;;21.26;39.42;101246.28;4962165;28;45486;-58
2023/06/03 09:49:38;;;;;;;;;11.25;11.00;;;;;21.34;38.96;101252.06;4961803;28;46540;-58
2023/06/03 09:52:09;;;;;;;;;14.75;14.75;;;;;21.41;38.81;101241.94;4962053;28;45251;-59
2023/06/03 09:54:35;;;;;;;;;10.75;9.50;;;;;21.51;38.88;101245.88;4962054;28;45343;-59
2023/06/03 09:57:19;;;;;;;;;13.00;11.75;;;;;21.60;38.88;101241.88;4961560;28;45570;-58
2023/06/03 09:59:44;;;;;;;;;12.75;9.50;;;;;21.69;38.63;101230.69;4962095;28;45404;-58
2023/06/03 10:02:14;;;;;;;;;12.75;11.75;;;;;21.78;38.59;101229.34;4976754;28;45355;-58
2023/06/03 10:04:42;;;;;;;;;12.25;12.25;;;;;21.87;39.25;101228.84;4980402;28;45293;-58
2023/06/03 10:07:12;;;;;;;;;9.25;9.25;;;;;21.99;38.88;101232.66;4965175;28;45428;-58
2023/06/03 10:09:38;;;;;;;;;13.25;10.50;;;;;22.10;38.79;101217.81;4961683;28;46930;-59
2023/06/03 10:12:05;;;;;;;;;12.00;9.25;;;;;22.24;39.04;101234.00;4961266;28;45246;-58
2023/06/03 10:14:30;;;;;;;;;13.50;11.50;;;;;22.36;38.72;101237.78;4960740;28;45283;-58
2023/06/03 10:17:09;;;;;;;;;12.50;12.25;;;;;22.46;38.88;101232.81;5001426;28;45564;-58
2023/06/03 10:19:35;;;;;;;;;13.50;12.25;;;;;22.61;38.84;101229.25;4961658;28;45334;-58
2023/06/03 10:22:01;;;;;;;;;10.00;9.75;;;;;22.75;38.49;101230.28;4960889;28;45323;-59
2023/06/03 10:24:28;;;;;;;;;10.00;9.00;;;;;22.89;38.38;101231.22;4961857;28;45520;-57
2023/06/03 10:26:55;;;;;;;;;11.75;11.50;;;;;23.04;38.40;101229.44;4961516;28;45229;-58
2023/06/03 10:29:21;;;;;;;;;13.00;12.00;;;;;23.22;38.46;101223.97;4961084;28;45424;-60
2023/06/03 10:31:49;;;;;;;;;12.25;11.75;;;;;23.43;38.53;101215.59;4961285;28;45280;-59
2023/06/03 10:34:15;;;;;;;;;12.75;12.25;;;;;23.69;38.63;101225.56;4961312;28;45421;-59
2023/06/03 10:36:42;;;;;;;;;11.00;9.50;;;;;24.04;38.61;101216.31;4960159;28;45501;-57
2023/06/03 10:39:12;;;;;;;;;15.75;13.75;;;;;24.45;38.70;101211.88;4961267;28;45328;-59
2023/06/03 10:41:38;;;;;;;;;13.75;13.75;;;;;24.86;38.24;101212.84;4961395;28;45522;-60
2023/06/03 10:44:04;;;;;;;;;9.75;9.75;;;;;25.41;38.65;101217.16;4961028;28;45419;-60
2023/06/03 10:46:30;;;;;;;;;15.75;13.00;;;;;25.94;39.00;101216.16;4976156;28;45406;-58
2023/06/03 10:48:56;;;;;;;;;9.25;9.25;;;;;26.51;39.01;101216.56;4961099;28;45322;-58
2023/06/03 10:51:48;;;;;;;;;13.50;11.50;;;;;27.17;39.00;101221.50;4961429;28;45397;-60
2023/06/03 10:54:37;;;;;;;;;10.00;10.00;;;;;27.81;38.14;101231.84;4976097;28;45396;-60
2023/06/03 10:57:08;;;;;;;;;14.50;13.50;;;;;28.47;38.43;101228.34;4977068;28;45577;-59
2023/06/03 10:59:45;;;;;;;;;12.50;11.25;;;;;29.12;37.79;101211.25;4979393;28;48348;-58
2023/06/03 11:02:11;;;;;;;;;14.25;12.50;;;;;29.70;37.51;101227.03;4980407;28;45426;-58
2023/06/03 11:04:37;;;;;;;;;12.75;10.75;;;;;30.30;37.33;101226.25;4979028;28;45314;-59
2023/06/03 11:07:26;;;;;;;;;11.75;11.50;;;;;30.86;36.84;101229.38;4965179;28;45428;-58
2023/06/03 11:09:54;;;;;;;;;14.50;11.50;;;;;31.47;36.81;101230.00;4960608;28;47295;-58
2023/06/03 11:12:20;;;;;;;;;15.25;13.25;;;;;31.98;36.18;101217.00;4960385;28;45771;-59